Fort Meade, MD

9:00 AM EST on November 24, 2017 (GMT -0500)
Tipton

Weather History for KFME - December, 2013

Change the Weather History Date:

Thursday, December 19, 2013

  Actual Average (KBWI) Record (KBWI)
Temperature  
Mean Temperature 39 °F -  
Max Temperature 57 °F 44 °F 66 °F (1931)
Min Temperature 21 °F 26 °F 6 °F (1989)
Degree Days  
Heating Degree Days 26    
Moisture  
Dew Point 26 °F    
Average Humidity 72    
Maximum Humidity 100    
Minimum Humidity 31    
Precipitation  
Precipitation 0.00 in - - ()
Sea Level Pressure  
Sea Level Pressure 30.16 in    
Wind  
Wind Speed 2 mph (SW)    
Max Wind Speed 9 mph    
Max Gust Speed -    
Visibility 10 miles    
Events      
Averages and records for this station are not official NWS values.
T = Trace of Precipitation, MM = Missing Value Source: NWS Daily Summary

Daily Weather History Graph

Daily Weather History Graph

Search for Another Location

Airport or City:

Trip Planner

Search our weather history database for the weather conditions in past years. The results will help you decide how hot, cold, wet, or windy it might be!

Date:

Astronomy

Dec. 19, 2013 Rise Set
Actual Time 7:21 AM EST 4:46 PM EST
Civil Twilight 6:51 AM EST 5:17 PM EST
Nautical Twilight 6:17 AM EST 5:50 PM EST
Astronomical Twilight 5:45 AM EST 6:23 PM EST
Moon 7:09 PM EST (12/19) 8:39 AM EST (12/19)
Length of Visible Light 10h 25m
Length of Day
9h 25m
Waning Gibbous, 95% of the Moon is Illuminated
Dec 19
Waning Gibbous
Dec 25
Last Quarter
Jan 1
New
Jan 7
First Quarter
Jan 15
Full

Hourly Weather History & Observations

Time (EST) Temp. Windchill Dew Point Humidity Pressure Visibility Wind Dir Wind Speed Gust Speed Precip Events Conditions
12:06 AM 23.0 °F - 21.2 °F 93% 30.23 in 10.0 mi Calm Calm - N/A   Clear
12:27 AM 23.0 °F - 21.2 °F 93% 30.24 in 10.0 mi Calm Calm - N/A   Clear
12:45 AM 23.0 °F - 21.2 °F 93% 30.23 in 10.0 mi Calm Calm - N/A   Clear
1:06 AM 21.2 °F - 21.2 °F 100% 30.22 in 10.0 mi Calm Calm - N/A   Clear
1:27 AM 23.0 °F - 21.2 °F 93% 30.23 in 10.0 mi Calm Calm - N/A   Clear
1:45 AM 23.0 °F - 21.2 °F 93% 30.22 in 10.0 mi Calm Calm - N/A   Clear
2:06 AM 21.2 °F - 19.4 °F 93% 30.22 in 10.0 mi Calm Calm - N/A   Clear
2:27 AM 21.2 °F - 21.2 °F 100% 30.22 in 10.0 mi Calm Calm - N/A   Clear
2:45 AM 23.0 °F - 21.2 °F 93% 30.22 in 10.0 mi Calm Calm - N/A   Clear
3:06 AM 21.2 °F - 21.2 °F 100% 30.21 in 10.0 mi Calm Calm - N/A   Clear
3:27 AM 21.2 °F - 21.2 °F 100% 30.21 in 10.0 mi Calm Calm - N/A   Clear
3:45 AM 21.2 °F - 21.2 °F 100% 30.22 in 10.0 mi Calm Calm - N/A   Clear
4:06 AM 21.2 °F - 21.2 °F 100% 30.21 in 10.0 mi Calm Calm - N/A   Clear
4:27 AM 21.2 °F - 21.2 °F 100% 30.20 in 10.0 mi Calm Calm - N/A   Clear
4:45 AM 21.2 °F - 21.2 °F 100% 30.19 in 10.0 mi Calm Calm - N/A   Clear
5:06 AM 23.0 °F - 21.2 °F 93% 30.19 in 10.0 mi Calm Calm - N/A   Clear
5:27 AM 21.2 °F - 21.2 °F 100% 30.19 in 10.0 mi Calm Calm - N/A   Clear
5:45 AM 21.2 °F - 19.4 °F 93% 30.19 in 10.0 mi Calm Calm - N/A   Clear
6:06 AM 21.2 °F - 19.4 °F 93% 30.19 in 10.0 mi Calm Calm - N/A   Clear
6:27 AM 21.2 °F - 21.2 °F 100% 30.19 in 10.0 mi Calm Calm - N/A   Clear
6:45 AM 23.0 °F - 21.2 °F 93% 30.19 in 10.0 mi Calm Calm - N/A   Clear
7:06 AM 23.0 °F - 21.2 °F 93% 30.19 in 10.0 mi Calm Calm - N/A   Clear
7:27 AM 23.0 °F - 21.2 °F 93% 30.19 in 10.0 mi Calm Calm - N/A   Clear
7:45 AM 23.0 °F - 21.2 °F 93% 30.19 in 10.0 mi Calm Calm - N/A   Clear
8:06 AM 23.0 °F - 21.2 °F 93% 30.19 in 10.0 mi Calm Calm - N/A   Clear
8:27 AM 24.8 °F - 23.0 °F 93% 30.19 in 10.0 mi Calm Calm - N/A   Clear
8:48 AM 26.6 °F - 23.0 °F 86% 30.19 in 10.0 mi Calm Calm - N/A   Clear
9:06 AM 28.4 °F - 26.6 °F 93% 30.19 in 10.0 mi Calm Calm - N/A   Clear
9:27 AM 30.2 °F - 28.4 °F 93% 30.20 in 10.0 mi Calm Calm - N/A   Clear
9:48 AM 32.0 °F - 30.2 °F 93% 30.19 in 10.0 mi Calm Calm - N/A   Clear
10:06 AM 33.8 °F 30.8 °F 28.4 °F 81% 30.19 in 10.0 mi SSW 3.5 mph - N/A   Clear
10:27 AM 35.6 °F 31.7 °F 28.4 °F 75% 30.19 in 10.0 mi SW 4.6 mph - N/A   Clear
10:48 AM 39.2 °F 35.9 °F 28.4 °F 65% 30.18 in 10.0 mi SW 4.6 mph - N/A   Clear
11:06 AM 41.0 °F 38.0 °F 26.6 °F 57% 30.17 in 10.0 mi SSW 4.6 mph - N/A   Clear
11:27 AM 44.6 °F 41.4 °F 26.6 °F 49% 30.16 in 10.0 mi SW 5.8 mph - N/A   Clear
11:48 AM 46.4 °F 44.3 °F 26.6 °F 46% 30.16 in 10.0 mi WSW 4.6 mph - N/A   Clear
12:06 PM 50.0 °F - 26.6 °F 40% 30.14 in 10.0 mi SW 4.6 mph - N/A   Clear
12:27 PM 50.0 °F - 26.6 °F 40% 30.13 in 10.0 mi SW 9.2 mph - N/A   Clear
12:48 PM 51.8 °F - 24.8 °F 35% 30.12 in 10.0 mi SSW 9.2 mph - N/A   Clear
1:06 PM 51.8 °F - 26.6 °F 38% 30.11 in 10.0 mi SW 4.6 mph - N/A   Clear
1:27 PM 53.6 °F - 26.6 °F 35% 30.11 in 10.0 mi SSW 9.2 mph - N/A   Clear
1:48 PM 55.4 °F - 26.6 °F 33% 30.10 in 10.0 mi SSW 6.9 mph - N/A   Clear
2:06 PM 55.4 °F - 26.6 °F 33% 30.10 in 10.0 mi SW 6.9 mph - N/A   Clear
2:27 PM 55.4 °F - 26.6 °F 33% 30.10 in 10.0 mi SSW 9.2 mph - N/A   Clear
2:48 PM 55.4 °F - 26.6 °F 33% 30.10 in 10.0 mi SW 8.1 mph - N/A   Clear
3:06 PM 57.2 °F - 26.6 °F 31% 30.10 in 10.0 mi SW 6.9 mph - N/A   Clear
3:27 PM 57.2 °F - 26.6 °F 31% 30.10 in 10.0 mi SSW 8.1 mph - N/A   Clear
3:48 PM 53.6 °F - 28.4 °F 38% 30.10 in 10.0 mi SSW 4.6 mph - N/A   Clear
4:06 PM 53.6 °F - 28.4 °F 38% 30.11 in 10.0 mi SSW 4.6 mph - N/A   Clear
4:27 PM 53.6 °F - 28.4 °F 38% 30.11 in 10.0 mi SW 5.8 mph - N/A   Clear
4:48 PM 50.0 °F - 28.4 °F 43% 30.11 in 10.0 mi SW 3.5 mph - N/A   Clear
5:06 PM 46.4 °F - 28.4 °F 50% 30.12 in 10.0 mi Calm Calm - N/A   Clear
5:27 PM 44.6 °F - 28.4 °F 53% 30.13 in 10.0 mi Calm Calm - N/A   Clear
5:48 PM 41.0 °F - 28.4 °F 61% 30.13 in 10.0 mi Calm Calm - N/A   Clear
6:09 PM 41.0 °F - 28.4 °F 61% 30.14 in 10.0 mi Calm Calm - N/A   Clear
6:27 PM 39.2 °F - 28.4 °F 65% 30.14 in 10.0 mi Calm Calm - N/A   Clear
6:48 PM 39.2 °F - 28.4 °F 65% 30.15 in 10.0 mi Calm Calm - N/A   Clear
7:09 PM 37.4 °F - 28.4 °F 70% 30.15 in 10.0 mi Calm Calm - N/A   Clear
7:27 PM 35.6 °F - 30.2 °F 81% 30.15 in 10.0 mi Calm Calm - N/A   Clear
7:48 PM 35.6 °F - 32.0 °F 87% 30.15 in 10.0 mi Calm Calm - N/A   Clear
8:09 PM 35.6 °F 32.8 °F 32.0 °F 87% 30.15 in 10.0 mi SW 3.5 mph - N/A   Clear
8:27 PM 35.6 °F 29.9 °F 32.0 °F 87% 30.15 in 10.0 mi SW 6.9 mph - N/A   Clear
8:48 PM 35.6 °F 29.9 °F 32.0 °F 87% 30.14 in 10.0 mi SW 6.9 mph - N/A   Clear
9:09 PM 37.4 °F 32.8 °F 32.0 °F 81% 30.15 in 10.0 mi SW 5.8 mph - N/A   Clear
9:27 PM 42.8 °F 38.0 °F 30.2 °F 61% 30.15 in 10.0 mi SW 8.1 mph - N/A   Clear
9:48 PM 44.6 °F 40.2 °F 30.2 °F 57% 30.15 in 10.0 mi SW 8.1 mph - N/A   Clear
10:09 PM 46.4 °F 41.9 °F 30.2 °F 53% 30.15 in 10.0 mi SW 9.2 mph - N/A   Clear
10:27 PM 44.6 °F 40.2 °F 30.2 °F 57% 30.15 in 10.0 mi SW 8.1 mph - N/A   Clear
10:48 PM 46.4 °F 42.4 °F 30.2 °F 53% 30.14 in 10.0 mi SW 8.1 mph - N/A   Clear
11:09 PM 44.6 °F 40.7 °F 30.2 °F 57% 30.14 in 10.0 mi SSW 6.9 mph - N/A   Clear
11:27 PM 44.6 °F 40.7 °F 30.2 °F 57% 30.14 in 10.0 mi SSW 6.9 mph - N/A   Clear
11:48 PM 42.8 °F 38.6 °F 30.2 °F 61% 30.13 in 10.0 mi SW 6.9 mph - N/A   Clear